createdAt,value
2018-03-26T00:00:03.108Z,1000.90
2018-03-26T00:01:03.163Z,1000.93
2018-03-26T00:02:03.219Z,1000.90
2018-03-26T00:03:03.276Z,1000.93
2018-03-26T00:04:03.332Z,1000.86
2018-03-26T00:05:03.388Z,1000.93
2018-03-26T00:06:03.446Z,1000.95
2018-03-26T00:07:03.501Z,1000.98
2018-03-26T00:08:03.557Z,1000.96
2018-03-26T00:09:03.613Z,1000.93
2018-03-26T00:10:03.670Z,1000.96
2018-03-26T00:11:03.726Z,1000.98
2018-03-26T00:12:03.782Z,1001.01
2018-03-26T00:13:03.837Z,1001.04
2018-03-26T00:14:03.894Z,1001.01
2018-03-26T00:15:03.949Z,1001.04
2018-03-26T00:16:04.005Z,1001.06
2018-03-26T00:17:04.062Z,1001.05
2018-03-26T00:18:04.118Z,1001.06
2018-03-26T00:19:04.174Z,1001.10
2018-03-26T00:20:04.230Z,1001.11
2018-03-26T00:21:04.287Z,1001.13
2018-03-26T00:22:04.343Z,1001.10
2018-03-26T00:23:04.400Z,1001.14
2018-03-26T00:24:04.454Z,1001.14
2018-03-26T00:25:04.511Z,1001.11
2018-03-26T00:26:04.566Z,1001.14
2018-03-26T00:27:04.631Z,1001.13
2018-03-26T00:28:04.677Z,1001.12
2018-03-26T00:29:04.734Z,1001.18
2018-03-26T00:30:04.790Z,1001.20
2018-03-26T00:31:05.148Z,1001.15
2018-03-26T00:32:04.906Z,1001.18
2018-03-26T00:33:04.959Z,1001.18
2018-03-26T00:34:05.014Z,1001.17
2018-03-26T00:35:05.075Z,1001.19
2018-03-26T00:36:05.126Z,1001.16
2018-03-26T00:37:05.182Z,1001.14
2018-03-26T00:38:05.239Z,1001.12
2018-03-26T00:39:05.294Z,1001.11
2018-03-26T00:40:05.351Z,1001.15
2018-03-26T00:41:05.404Z,1001.16
2018-03-26T00:42:05.462Z,1001.20
2018-03-26T00:43:05.518Z,1001.22
2018-03-26T00:44:05.572Z,1001.21
2018-03-26T00:45:05.631Z,1001.23
2018-03-26T00:46:05.685Z,1001.22
2018-03-26T00:47:05.740Z,1001.18
2018-03-26T00:48:05.796Z,1001.23
2018-03-26T00:49:05.852Z,1001.24
2018-03-26T00:50:05.908Z,1001.22
2018-03-26T00:51:05.964Z,1001.24
2018-03-26T00:52:06.020Z,1001.20
2018-03-26T00:53:06.075Z,1001.29
2018-03-26T00:54:06.135Z,1001.24
2018-03-26T00:55:06.187Z,1001.30
2018-03-26T00:56:06.243Z,1001.29
2018-03-26T00:57:06.297Z,1001.29
2018-03-26T00:58:06.354Z,1001.32
2018-03-26T00:59:06.408Z,1001.35
2018-03-26T01:00:06.462Z,1001.31
2018-03-26T01:01:06.520Z,1001.35
2018-03-26T01:02:06.576Z,1001.33
2018-03-26T01:03:06.630Z,1001.35
2018-03-26T01:04:06.686Z,1001.36
2018-03-26T01:05:06.892Z,1001.37
2018-03-26T01:06:06.797Z,1001.34
2018-03-26T01:07:06.853Z,1001.32
2018-03-26T01:08:06.908Z,1001.36
2018-03-26T01:09:06.963Z,1001.35
2018-03-26T01:10:07.271Z,1001.35
2018-03-26T01:11:07.075Z,1001.38
2018-03-26T01:12:07.129Z,1001.38
2018-03-26T01:13:07.186Z,1001.35
2018-03-26T01:14:07.240Z,1001.37
2018-03-26T01:15:07.296Z,1001.42
2018-03-26T01:16:07.352Z,1001.37
2018-03-26T01:17:07.407Z,1001.42
2018-03-26T01:18:07.463Z,1001.42
2018-03-26T01:19:07.521Z,1001.40
2018-03-26T01:20:07.573Z,1001.39
2018-03-26T01:21:07.629Z,1001.41
2018-03-26T01:22:07.684Z,1001.45
2018-03-26T01:23:07.745Z,1001.48
2018-03-26T01:24:07.794Z,1001.45
2018-03-26T01:25:07.899Z,1001.45
2018-03-26T01:26:07.906Z,1001.47
2018-03-26T01:27:07.961Z,1001.49
2018-03-26T01:28:08.015Z,1001.48
2018-03-26T01:29:08.071Z,1001.51
2018-03-26T01:30:08.125Z,1001.54
2018-03-26T01:31:08.182Z,1001.53
2018-03-26T01:32:08.236Z,1001.55
2018-03-26T01:33:08.292Z,1001.57
2018-03-26T01:34:08.346Z,1001.58
2018-03-26T01:35:08.403Z,1001.56
2018-03-26T01:36:08.457Z,1001.55
2018-03-26T01:37:08.512Z,1001.60
2018-03-26T01:38:08.568Z,1001.58
2018-03-26T01:39:08.622Z,1001.61
2018-03-26T01:40:08.676Z,1001.65
2018-03-26T01:41:08.733Z,1001.60
2018-03-26T01:42:08.788Z,1001.60
2018-03-26T01:43:08.845Z,1001.65
2018-03-26T01:44:08.899Z,1001.65
2018-03-26T01:45:08.954Z,1001.68
2018-03-26T01:46:09.010Z,1001.67
2018-03-26T01:47:09.063Z,1001.67
2018-03-26T01:48:09.119Z,1001.70
2018-03-26T01:49:09.175Z,1001.72
2018-03-26T01:50:09.230Z,1001.74
2018-03-26T01:51:09.284Z,1001.74
2018-03-26T01:52:09.339Z,1001.72
2018-03-26T01:53:09.393Z,1001.74
2018-03-26T01:54:09.451Z,1001.77
2018-03-26T01:55:09.507Z,1001.77
2018-03-26T01:56:09.561Z,1001.79
2018-03-26T01:57:09.615Z,1001.81
2018-03-26T01:58:09.671Z,1001.81
2018-03-26T01:59:09.725Z,1001.84
2018-03-26T02:00:09.780Z,1001.86
2018-03-26T02:01:09.837Z,1001.87
2018-03-26T02:02:10.143Z,1001.85
2018-03-26T02:03:09.947Z,1001.84
2018-03-26T02:04:10.002Z,1001.85
2018-03-26T02:05:10.059Z,1001.85
2018-03-26T02:06:10.114Z,1001.83
2018-03-26T02:07:10.169Z,1001.87
2018-03-26T02:08:10.224Z,1001.89
2018-03-26T02:09:10.280Z,1001.84
2018-03-26T02:10:10.335Z,1001.87
2018-03-26T02:11:10.391Z,1001.91
2018-03-26T02:12:10.450Z,1001.93
2018-03-26T02:13:10.753Z,1001.94
2018-03-26T02:14:10.558Z,1001.94
2018-03-26T02:15:10.612Z,1001.97
2018-03-26T02:16:10.669Z,1001.97
2018-03-26T02:17:10.727Z,1001.96
2018-03-26T02:18:10.781Z,1001.99
2018-03-26T02:19:10.835Z,1001.93
2018-03-26T02:20:10.890Z,1001.96
2018-03-26T02:21:10.947Z,1002.00
2018-03-26T02:22:11.002Z,1001.95
2018-03-26T02:23:11.058Z,1002.01
2018-03-26T02:24:11.113Z,1002.01
2018-03-26T02:25:11.175Z,1001.99
2018-03-26T02:26:11.225Z,1002.03
2018-03-26T02:27:11.281Z,1002.02
2018-03-26T02:28:11.336Z,1002.00
2018-03-26T02:29:11.392Z,1002.03
2018-03-26T02:30:11.449Z,1001.99
2018-03-26T02:31:11.505Z,1002.04
2018-03-26T02:32:11.560Z,1002.04
2018-03-26T02:33:11.616Z,1002.02
2018-03-26T02:34:11.671Z,1002.00
2018-03-26T02:35:11.727Z,1002.05
2018-03-26T02:36:11.783Z,1002.00
2018-03-26T02:37:11.838Z,1002.00
2018-03-26T02:38:11.896Z,1001.95
2018-03-26T02:39:11.951Z,1002.01
2018-03-26T02:40:12.005Z,1002.03
2018-03-26T02:41:12.060Z,1002.04
2018-03-26T02:42:12.130Z,1002.04
2018-03-26T02:43:12.174Z,1002.04
2018-03-26T02:44:12.230Z,1002.04
2018-03-26T02:45:12.286Z,1002.04
2018-03-26T02:46:12.343Z,1002.03
2018-03-26T02:47:12.398Z,1002.07
2018-03-26T02:48:12.452Z,1002.05
2018-03-26T02:49:12.508Z,1002.08
2018-03-26T02:50:12.565Z,1002.11
2018-03-26T02:51:12.622Z,1002.10
2018-03-26T02:52:12.677Z,1002.11
2018-03-26T02:53:12.732Z,1002.12
2018-03-26T02:54:12.789Z,1002.15
2018-03-26T02:55:12.846Z,1002.17
2018-03-26T02:56:12.915Z,1002.13
2018-03-26T02:57:12.956Z,1002.16
2018-03-26T02:58:13.015Z,1002.20
2018-03-26T02:59:13.097Z,1002.23
2018-03-26T03:00:13.123Z,1002.22
2018-03-26T03:01:13.185Z,1002.22
2018-03-26T03:02:13.237Z,1002.22
2018-03-26T03:03:13.293Z,1002.20
2018-03-26T03:04:13.350Z,1002.24
2018-03-26T03:05:13.406Z,1002.20
2018-03-26T03:06:13.461Z,1002.19
2018-03-26T03:07:13.517Z,1002.18
2018-03-26T03:08:13.574Z,1002.18
2018-03-26T03:09:13.630Z,1002.18
2018-03-26T03:10:13.685Z,1002.20
2018-03-26T03:11:13.741Z,1002.22
2018-03-26T03:12:13.799Z,1002.25
2018-03-26T03:13:13.852Z,1002.25
2018-03-26T03:14:13.909Z,1002.27
2018-03-26T03:15:14.217Z,1002.26
2018-03-26T03:16:14.020Z,1002.31
2018-03-26T03:17:14.076Z,1002.32
2018-03-26T03:18:14.133Z,1002.35
2018-03-26T03:19:14.190Z,1002.35
2018-03-26T03:20:14.244Z,1002.30
2018-03-26T03:21:14.301Z,1002.36
2018-03-26T03:22:14.358Z,1002.40
2018-03-26T03:23:14.414Z,1002.39
2018-03-26T03:24:14.470Z,1002.37
2018-03-26T03:25:14.524Z,1002.38
2018-03-26T03:26:14.582Z,1002.40
2018-03-26T03:27:14.638Z,1002.38
2018-03-26T03:28:14.693Z,1002.36
2018-03-26T03:29:14.749Z,1002.38
2018-03-26T03:30:14.817Z,1002.37
2018-03-26T03:31:14.863Z,1002.36
2018-03-26T03:32:14.916Z,1002.39
2018-03-26T03:33:14.974Z,1002.39
2018-03-26T03:34:15.029Z,1002.40
2018-03-26T03:35:15.086Z,1002.40
2018-03-26T03:36:15.141Z,1002.44
2018-03-26T03:37:15.197Z,1002.40
2018-03-26T03:38:15.253Z,1002.42
2018-03-26T03:39:15.309Z,1002.41
2018-03-26T03:40:15.364Z,1002.42
2018-03-26T03:41:15.420Z,1002.43
2018-03-26T03:42:15.476Z,1002.43
2018-03-26T03:43:15.532Z,1002.44
2018-03-26T03:44:15.587Z,1002.44
2018-03-26T03:45:15.643Z,1002.41
2018-03-26T03:46:15.699Z,1002.48
2018-03-26T03:47:15.754Z,1002.48
2018-03-26T03:48:15.809Z,1002.52
2018-03-26T03:49:15.866Z,1002.53
2018-03-26T03:50:15.920Z,1002.52
2018-03-26T03:51:15.977Z,1002.51
2018-03-26T03:52:16.032Z,1002.51
2018-03-26T03:53:16.088Z,1002.45
2018-03-26T03:54:16.172Z,1002.50
2018-03-26T03:55:16.199Z,1002.51
2018-03-26T03:56:16.253Z,1002.54
2018-03-26T03:57:16.330Z,1002.50
2018-03-26T03:58:16.385Z,1002.50
2018-03-26T03:59:16.420Z,1002.49
2018-03-26T04:00:16.476Z,1002.50
2018-03-26T04:01:16.896Z,1002.49
2018-03-26T04:02:16.599Z,1002.49
2018-03-26T04:03:16.642Z,1002.47
2018-03-26T04:04:16.697Z,1002.54
2018-03-26T04:05:16.759Z,1002.51
2018-03-26T04:06:16.810Z,1002.52
2018-03-26T04:07:16.865Z,1002.52
2018-03-26T04:08:16.926Z,1002.48
2018-03-26T04:09:16.977Z,1002.53
2018-03-26T04:10:17.038Z,1002.55
2018-03-26T04:11:17.091Z,1002.52
2018-03-26T04:12:17.143Z,1002.52
2018-03-26T04:13:17.199Z,1002.57
2018-03-26T04:14:17.256Z,1002.55
2018-03-26T04:15:17.310Z,1002.58
2018-03-26T04:16:17.367Z,1002.61
2018-03-26T04:17:17.422Z,1002.65
2018-03-26T04:18:17.477Z,1002.63
2018-03-26T04:19:17.534Z,1002.65
2018-03-26T04:20:17.590Z,1002.62
2018-03-26T04:21:17.645Z,1002.64
2018-03-26T04:22:17.711Z,1002.62
2018-03-26T04:23:17.758Z,1002.65
2018-03-26T04:24:17.812Z,1002.67
2018-03-26T04:25:17.868Z,1002.68
2018-03-26T04:26:17.924Z,1002.65
2018-03-26T04:27:17.980Z,1002.67
2018-03-26T04:28:18.035Z,1002.67
2018-03-26T04:29:18.090Z,1002.71
2018-03-26T04:30:18.147Z,1002.72
2018-03-26T04:31:18.203Z,1002.67
2018-03-26T04:32:18.263Z,1002.69
2018-03-26T04:33:18.564Z,1002.69
2018-03-26T04:34:18.369Z,1002.69
2018-03-26T04:35:18.425Z,1002.70
2018-03-26T04:36:18.480Z,1002.71
2018-03-26T04:37:18.535Z,1002.69
2018-03-26T04:38:18.592Z,1002.69
2018-03-26T04:39:18.648Z,1002.69
2018-03-26T04:40:18.702Z,1002.68
2018-03-26T04:41:18.758Z,1002.71
2018-03-26T04:42:18.815Z,1002.72
2018-03-26T04:43:18.871Z,1002.73
2018-03-26T04:44:18.924Z,1002.73
2018-03-26T04:45:18.982Z,1002.73
2018-03-26T04:46:19.038Z,1002.77
2018-03-26T04:47:19.093Z,1002.76
2018-03-26T04:48:19.149Z,1002.79
2018-03-26T04:49:19.203Z,1002.78
2018-03-26T04:50:19.263Z,1002.81
2018-03-26T04:51:19.316Z,1002.84
2018-03-26T04:52:19.371Z,1002.85
2018-03-26T04:53:19.427Z,1002.84
2018-03-26T04:54:19.487Z,1002.88
2018-03-26T04:55:19.538Z,1002.83
2018-03-26T04:56:19.595Z,1002.89
2018-03-26T04:57:19.648Z,1002.91
2018-03-26T04:58:19.704Z,1002.94
2018-03-26T04:59:19.760Z,1002.93
2018-03-26T05:00:19.815Z,1002.94
2018-03-26T05:01:19.871Z,1002.93
2018-03-26T05:02:19.926Z,1002.96
2018-03-26T05:03:19.984Z,1002.94
2018-03-26T05:04:20.038Z,1002.97
2018-03-26T05:05:20.093Z,1002.99
2018-03-26T05:06:20.149Z,1002.97
2018-03-26T05:07:20.204Z,1003.01
2018-03-26T05:08:20.259Z,1002.98
2018-03-26T05:09:20.315Z,1003.04
2018-03-26T05:10:20.370Z,1002.99
2018-03-26T05:11:20.450Z,1002.98
2018-03-26T05:12:20.487Z,1003.01
2018-03-26T05:13:20.574Z,1002.98
2018-03-26T05:14:20.611Z,1002.98
2018-03-26T05:15:20.649Z,1003.00
2018-03-26T05:16:20.707Z,1003.04
2018-03-26T05:17:20.764Z,1003.03
2018-03-26T05:18:20.816Z,1003.00
2018-03-26T05:19:20.871Z,1003.05
2018-03-26T05:20:20.928Z,1003.02
2018-03-26T05:21:21.311Z,1003.07
2018-03-26T05:22:21.039Z,1003.10
2018-03-26T05:23:21.095Z,1003.11
2018-03-26T05:24:21.149Z,1003.12
2018-03-26T05:25:21.206Z,1003.15
2018-03-26T05:26:21.685Z,1003.18
2018-03-26T05:27:21.317Z,1003.17
2018-03-26T05:28:21.375Z,1003.19
2018-03-26T05:29:21.578Z,1003.17
2018-03-26T05:30:21.486Z,1003.18
2018-03-26T05:31:21.592Z,1003.21
2018-03-26T05:32:21.595Z,1003.23
2018-03-26T05:33:21.658Z,1003.24
2018-03-26T05:34:21.707Z,1003.26
2018-03-26T05:35:21.915Z,1003.27
2018-03-26T05:36:22.192Z,1003.25
2018-03-26T05:37:21.880Z,1003.26
2018-03-26T05:38:21.932Z,1003.21
2018-03-26T05:39:21.990Z,1003.24
2018-03-26T05:40:22.045Z,1003.28
2018-03-26T05:41:22.099Z,1003.32
2018-03-26T05:42:22.156Z,1003.37
2018-03-26T05:43:22.213Z,1003.40
2018-03-26T05:44:22.267Z,1003.39
2018-03-26T05:45:22.324Z,1003.44
2018-03-26T05:46:22.380Z,1003.49
2018-03-26T05:47:22.438Z,1003.52
2018-03-26T05:48:22.499Z,1003.53
2018-03-26T05:49:22.548Z,1003.53
2018-03-26T05:50:22.604Z,1003.52
2018-03-26T05:51:22.665Z,1003.56
2018-03-26T05:52:22.714Z,1003.56
2018-03-26T05:53:22.772Z,1003.58
2018-03-26T05:54:22.828Z,1003.55
2018-03-26T05:55:22.885Z,1003.60
2018-03-26T05:56:22.940Z,1003.71
2018-03-26T05:57:22.997Z,1003.70
2018-03-26T05:58:23.541Z,1003.68
2018-03-26T05:59:23.640Z,1003.71
2018-03-26T06:00:23.164Z,1003.67
2018-03-26T06:01:23.972Z,1003.65
2018-03-26T06:02:23.904Z,1003.66
2018-03-26T06:03:24.421Z,1003.69
2018-03-26T06:04:24.010Z,1003.73
2018-03-26T06:05:24.015Z,1003.73
2018-03-26T06:06:24.180Z,1003.72
2018-03-26T06:07:24.031Z,1003.77
2018-03-26T06:08:23.613Z,1003.74
2018-03-26T06:09:23.667Z,1003.78
2018-03-26T06:10:23.724Z,1003.78
2018-03-26T06:11:23.777Z,1003.81
2018-03-26T06:12:23.837Z,1003.75
2018-03-26T06:13:23.890Z,1003.77
2018-03-26T06:14:23.946Z,1003.79
2018-03-26T06:15:24.001Z,1003.77
2018-03-26T06:16:24.057Z,1003.79
2018-03-26T06:17:24.114Z,1003.81
2018-03-26T06:18:24.168Z,1003.85
2018-03-26T06:19:24.226Z,1003.87
2018-03-26T06:20:24.283Z,1003.85
2018-03-26T06:21:24.337Z,1003.89
2018-03-26T06:22:24.393Z,1003.89
2018-03-26T06:23:24.465Z,1003.88
2018-03-26T06:24:24.504Z,1003.89
2018-03-26T06:25:24.603Z,1003.89
2018-03-26T06:26:24.617Z,1003.92
2018-03-26T06:27:24.673Z,1003.91
2018-03-26T06:28:24.727Z,1003.96
2018-03-26T06:29:24.785Z,1003.97
2018-03-26T06:30:24.840Z,1003.97
2018-03-26T06:31:24.896Z,1003.99
2018-03-26T06:32:24.952Z,1004.00
2018-03-26T06:33:25.008Z,1004.01
2018-03-26T06:34:25.064Z,1004.03
2018-03-26T06:35:25.120Z,1004.08
2018-03-26T06:36:25.175Z,1004.06
2018-03-26T06:37:25.230Z,1004.09
2018-03-26T06:38:25.305Z,1004.09
2018-03-26T06:39:25.343Z,1004.10
2018-03-26T06:40:25.402Z,1004.09
2018-03-26T06:41:25.455Z,1004.08
2018-03-26T06:42:25.509Z,1004.07
2018-03-26T06:43:25.567Z,1004.09
2018-03-26T06:44:25.621Z,1004.05
2018-03-26T06:45:25.678Z,1004.06
2018-03-26T06:46:25.734Z,1004.06
2018-03-26T06:47:25.790Z,1004.10
2018-03-26T06:48:25.854Z,1004.12
2018-03-26T06:49:25.901Z,1004.11
2018-03-26T06:50:25.958Z,1004.10
2018-03-26T06:51:26.014Z,1004.11
2018-03-26T06:52:26.070Z,1004.08
2018-03-26T06:53:26.125Z,1004.09
2018-03-26T06:54:26.182Z,1004.10
2018-03-26T06:55:26.237Z,1004.16
2018-03-26T06:56:26.298Z,1004.16
2018-03-26T06:57:26.349Z,1004.18
2018-03-26T06:58:26.406Z,1004.18
2018-03-26T06:59:26.465Z,1004.19
2018-03-26T07:00:26.518Z,1004.19
2018-03-26T07:01:26.574Z,1004.23
2018-03-26T07:02:26.630Z,1004.18
2018-03-26T07:03:26.687Z,1004.20
2018-03-26T07:04:26.743Z,1004.25
2018-03-26T07:05:26.798Z,1004.22
2018-03-26T07:06:26.858Z,1004.28
2018-03-26T07:07:26.913Z,1004.31
2018-03-26T07:08:26.971Z,1004.26
2018-03-26T07:09:27.026Z,1004.32
2018-03-26T07:10:27.083Z,1004.33
2018-03-26T07:11:27.144Z,1004.35
2018-03-26T07:12:27.240Z,1004.35
2018-03-26T07:13:27.254Z,1004.37
2018-03-26T07:14:27.310Z,1004.41
2018-03-26T07:15:27.368Z,1004.40
2018-03-26T07:16:27.425Z,1004.43
2018-03-26T07:17:27.481Z,1004.43
2018-03-26T07:18:28.003Z,1004.47
2018-03-26T07:19:27.599Z,1004.43
2018-03-26T07:20:27.654Z,1004.45
2018-03-26T07:21:27.718Z,1004.47
2018-03-26T07:22:27.768Z,1004.51
2018-03-26T07:23:27.831Z,1004.49
2018-03-26T07:24:27.884Z,1004.52
2018-03-26T07:25:27.947Z,1004.53
2018-03-26T07:26:28.003Z,1004.53
2018-03-26T07:27:28.059Z,1004.53
2018-03-26T07:28:28.142Z,1004.55
2018-03-26T07:29:28.178Z,1004.56
2018-03-26T07:30:28.233Z,1004.55
2018-03-26T07:31:28.289Z,1004.58
2018-03-26T07:32:28.348Z,1004.57
2018-03-26T07:33:28.406Z,1004.61
2018-03-26T07:34:28.464Z,1004.61
2018-03-26T07:35:28.522Z,1004.59
2018-03-26T07:36:28.580Z,1004.58
2018-03-26T07:37:28.639Z,1004.62
2018-03-26T07:38:28.698Z,1004.60
2018-03-26T07:39:28.756Z,1004.60
2018-03-26T07:40:28.812Z,1004.66
2018-03-26T07:41:28.871Z,1004.64
2018-03-26T07:42:28.933Z,1004.64
2018-03-26T07:43:28.991Z,1004.65
2018-03-26T07:44:29.047Z,1004.64
2018-03-26T07:45:29.105Z,1004.67
2018-03-26T07:46:29.174Z,1004.68
2018-03-26T07:47:29.222Z,1004.71
2018-03-26T07:48:29.284Z,1004.70
2018-03-26T07:49:29.339Z,1004.69
2018-03-26T07:50:29.398Z,1004.74
2018-03-26T07:51:29.713Z,1004.72
2018-03-26T07:52:29.513Z,1004.74
2018-03-26T07:53:29.572Z,1004.74
2018-03-26T07:54:29.633Z,1004.73
2018-03-26T07:55:29.694Z,1004.77
2018-03-26T07:56:29.749Z,1004.77
2018-03-26T07:57:29.809Z,1004.77
2018-03-26T07:58:29.876Z,1004.70
2018-03-26T07:59:29.978Z,1004.76
2018-03-26T08:00:29.984Z,1004.78
2018-03-26T08:01:30.043Z,1004.81
2018-03-26T08:02:30.599Z,1004.82
2018-03-26T08:03:30.160Z,1004.81
2018-03-26T08:04:30.217Z,1004.82
2018-03-26T08:05:30.278Z,1004.83
2018-03-26T08:06:30.336Z,1004.84
2018-03-26T08:07:30.395Z,1004.88
2018-03-26T08:08:30.453Z,1004.82
2018-03-26T08:09:30.515Z,1004.83
2018-03-26T08:10:30.587Z,1004.84
2018-03-26T08:11:30.632Z,1004.84
2018-03-26T08:12:30.690Z,1004.87
2018-03-26T08:13:30.750Z,1004.89
2018-03-26T08:14:30.808Z,1004.86
2018-03-26T08:15:30.872Z,1004.87
2018-03-26T08:16:30.976Z,1004.91
2018-03-26T08:17:30.988Z,1004.92
2018-03-26T08:18:31.295Z,1004.95
2018-03-26T08:19:31.105Z,1004.92
2018-03-26T08:20:31.164Z,1004.94
2018-03-26T08:21:31.223Z,1004.94
2018-03-26T08:22:31.284Z,1004.92
2018-03-26T08:23:31.347Z,1004.95
2018-03-26T08:24:31.405Z,1004.96
2018-03-26T08:25:31.467Z,1004.94
2018-03-26T08:26:31.522Z,1004.98
2018-03-26T08:27:31.583Z,1005.00
2018-03-26T08:28:31.642Z,1005.00
2018-03-26T08:29:31.703Z,1005.07
2018-03-26T08:30:31.761Z,1005.14
2018-03-26T08:31:31.823Z,1005.11
2018-03-26T08:32:31.881Z,1005.17
2018-03-26T08:33:31.947Z,1005.14
2018-03-26T08:34:32.003Z,1005.18
2018-03-26T08:35:32.060Z,1005.23
2018-03-26T08:36:32.152Z,1005.18
2018-03-26T08:37:32.181Z,1005.24
2018-03-26T08:38:32.242Z,1005.21
2018-03-26T08:39:32.303Z,1005.27
2018-03-26T08:40:32.362Z,1005.28
2018-03-26T08:41:32.423Z,1005.32
2018-03-26T08:42:32.605Z,1005.25
2018-03-26T08:43:32.545Z,1005.24
2018-03-26T08:44:32.603Z,1005.24
2018-03-26T08:45:32.663Z,1005.31
2018-03-26T08:46:33.338Z,1005.31
2018-03-26T08:47:33.578Z,1005.29
2018-03-26T08:48:33.520Z,1005.28
2018-03-26T08:49:33.436Z,1005.26
2018-03-26T08:50:33.650Z,1005.23
2018-03-26T08:51:33.646Z,1005.23
2018-03-26T08:52:33.545Z,1005.31
2018-03-26T08:53:33.751Z,1005.33
2018-03-26T08:54:33.710Z,1005.31
2018-03-26T08:55:33.861Z,1005.34
2018-03-26T08:56:33.384Z,1005.30
2018-03-26T08:57:33.908Z,1005.28
2018-03-26T08:58:34.009Z,1005.24
2018-03-26T08:59:33.934Z,1005.21
2018-03-26T09:00:34.067Z,1005.24
2018-03-26T09:01:33.634Z,1005.28
2018-03-26T09:02:34.387Z,1005.25
2018-03-26T09:03:34.337Z,1005.27
2018-03-26T09:04:33.813Z,1005.33
2018-03-26T09:05:33.873Z,1005.33
2018-03-26T09:06:33.933Z,1005.35
2018-03-26T09:07:33.997Z,1005.43
2018-03-26T09:08:34.580Z,1005.38
2018-03-26T09:09:34.639Z,1005.44
2018-03-26T09:10:34.864Z,1005.42
2018-03-26T09:11:34.841Z,1005.43
2018-03-26T09:12:34.897Z,1005.45
2018-03-26T09:13:34.814Z,1005.42
2018-03-26T09:14:35.143Z,1005.48
2018-03-26T09:15:35.015Z,1005.45
2018-03-26T09:16:35.179Z,1005.46
2018-03-26T09:17:34.663Z,1005.50
2018-03-26T09:18:35.220Z,1005.46
2018-03-26T09:19:34.722Z,1005.52
2018-03-26T09:20:35.339Z,1005.50
2018-03-26T09:21:35.301Z,1005.50
2018-03-26T09:22:35.052Z,1005.53
2018-03-26T09:23:34.964Z,1005.46
2018-03-26T09:24:35.023Z,1005.50
2018-03-26T09:25:35.085Z,1005.44
2018-03-26T09:26:35.145Z,1005.34
2018-03-26T09:27:35.208Z,1005.42
2018-03-26T09:28:35.269Z,1005.39
2018-03-26T09:29:35.328Z,1005.40
2018-03-26T09:30:35.390Z,1005.40
2018-03-26T09:31:35.998Z,1005.39
2018-03-26T09:32:35.513Z,1005.42
2018-03-26T09:33:35.574Z,1005.46
2018-03-26T09:34:35.636Z,1005.42
2018-03-26T09:35:35.697Z,1005.43
2018-03-26T09:36:35.802Z,1005.36
2018-03-26T09:37:35.820Z,1005.38
2018-03-26T09:38:35.881Z,1005.37
2018-03-26T09:39:35.943Z,1005.37
2018-03-26T09:40:36.061Z,1005.38
2018-03-26T09:41:36.066Z,1005.36
2018-03-26T09:42:36.128Z,1005.34
2018-03-26T09:43:36.189Z,1005.31
2018-03-26T09:44:36.252Z,1005.30
2018-03-26T09:45:36.312Z,1005.35
2018-03-26T09:46:36.373Z,1005.36
2018-03-26T09:47:36.436Z,1005.37
2018-03-26T09:48:36.496Z,1005.37
2018-03-26T09:49:36.558Z,1005.40
2018-03-26T09:50:36.621Z,1005.37
2018-03-26T09:51:36.681Z,1005.36
2018-03-26T09:52:36.743Z,1005.33
2018-03-26T09:53:36.804Z,1005.35
2018-03-26T09:54:36.881Z,1005.37
2018-03-26T09:55:36.928Z,1005.42
2018-03-26T09:56:37.000Z,1005.39
2018-03-26T09:57:37.057Z,1005.41
2018-03-26T09:58:37.121Z,1005.45
2018-03-26T09:59:37.181Z,1005.52
2018-03-26T10:00:37.259Z,1005.51
2018-03-26T10:01:37.708Z,1005.45
2018-03-26T10:02:37.359Z,1005.48
2018-03-26T10:03:37.421Z,1005.51
2018-03-26T10:04:37.481Z,1005.48
2018-03-26T10:05:37.568Z,1005.48
2018-03-26T10:06:37.605Z,1005.43
2018-03-26T10:07:37.817Z,1005.47
2018-03-26T10:08:37.728Z,1005.43
2018-03-26T10:09:37.789Z,1005.47
2018-03-26T10:10:37.850Z,1005.45
2018-03-26T10:11:37.913Z,1005.43
2018-03-26T10:12:37.975Z,1005.42
2018-03-26T10:13:38.034Z,1005.43
2018-03-26T10:14:38.097Z,1005.42
2018-03-26T10:15:38.160Z,1005.46
2018-03-26T10:16:38.220Z,1005.46
2018-03-26T10:17:38.282Z,1005.44
2018-03-26T10:18:38.342Z,1005.48
2018-03-26T10:19:38.404Z,1005.45
2018-03-26T10:20:38.468Z,1005.49
2018-03-26T10:21:38.526Z,1005.50
2018-03-26T10:22:38.586Z,1005.49
2018-03-26T10:23:38.647Z,1005.53
2018-03-26T10:24:38.709Z,1005.53
2018-03-26T10:25:38.770Z,1005.55
2018-03-26T10:26:38.833Z,1005.51
2018-03-26T10:27:38.894Z,1005.51
2018-03-26T10:28:38.956Z,1005.55
2018-03-26T10:29:39.170Z,1005.53
2018-03-26T10:30:39.079Z,1005.49
2018-03-26T10:31:39.140Z,1005.49
2018-03-26T10:32:39.232Z,1005.49
2018-03-26T10:33:39.262Z,1005.41
2018-03-26T10:34:39.323Z,1005.41
2018-03-26T10:35:39.386Z,1005.42
2018-03-26T10:36:39.446Z,1005.41
2018-03-26T10:37:39.508Z,1005.46
2018-03-26T10:38:39.572Z,1005.48
2018-03-26T10:39:39.656Z,1005.45
2018-03-26T10:40:39.692Z,1005.44
2018-03-26T10:41:39.753Z,1005.45
2018-03-26T10:42:39.815Z,1005.49
2018-03-26T10:43:39.877Z,1005.50
2018-03-26T10:44:39.939Z,1005.49
2018-03-26T10:45:40.000Z,1005.51
2018-03-26T10:46:40.063Z,1005.52
2018-03-26T10:47:40.129Z,1005.59
2018-03-26T10:48:40.184Z,1005.62
2018-03-26T10:49:40.246Z,1005.64
2018-03-26T10:50:40.308Z,1005.66
2018-03-26T10:51:40.370Z,1005.74
2018-03-26T10:52:41.166Z,1005.78
2018-03-26T10:53:41.075Z,1005.80
2018-03-26T10:54:40.557Z,1005.87
2018-03-26T10:55:40.643Z,1005.96
2018-03-26T10:56:40.679Z,1005.98
2018-03-26T10:57:40.742Z,1005.99
2018-03-26T10:58:40.805Z,1006.02
2018-03-26T10:59:40.875Z,1006.26
2018-03-26T11:00:40.929Z,1006.53
2018-03-26T11:01:41.046Z,1006.42
2018-03-26T11:02:41.056Z,1006.29
2018-03-26T11:03:41.118Z,1006.19
2018-03-26T11:04:41.431Z,1005.87
2018-03-26T11:05:41.283Z,1005.80
2018-03-26T11:06:41.309Z,1005.76
2018-03-26T11:07:41.372Z,1005.72
2018-03-26T11:08:41.435Z,1005.70
2018-03-26T11:09:41.502Z,1005.67
2018-03-26T11:10:41.566Z,1005.73
2018-03-26T11:11:41.633Z,1005.69
2018-03-26T11:12:41.694Z,1005.77
2018-03-26T11:13:41.760Z,1005.84
2018-03-26T11:14:41.821Z,1005.91
2018-03-26T11:15:41.884Z,1005.97
2018-03-26T11:16:41.946Z,1005.96
2018-03-26T11:17:42.011Z,1005.97
2018-03-26T11:18:42.075Z,1006.01
2018-03-26T11:19:42.139Z,1006.04
2018-03-26T11:20:42.202Z,1006.05
2018-03-26T11:21:42.268Z,1006.06
2018-03-26T11:22:42.358Z,1006.09
2018-03-26T11:23:42.395Z,1006.06
2018-03-26T11:24:42.459Z,1006.04
2018-03-26T11:25:42.523Z,1006.01
2018-03-26T11:26:42.592Z,1006.05
2018-03-26T11:27:42.650Z,1006.09
2018-03-26T11:28:42.715Z,1006.10
2018-03-26T11:29:42.778Z,1006.08
2018-03-26T11:30:42.843Z,1006.13
2018-03-26T11:31:43.529Z,1006.15
2018-03-26T11:32:43.512Z,1006.16
2018-03-26T11:33:43.683Z,1006.14
2018-03-26T11:34:43.100Z,1006.21
2018-03-26T11:35:43.164Z,1006.12
2018-03-26T11:36:43.227Z,1006.20
2018-03-26T11:37:43.299Z,1006.35
2018-03-26T11:38:43.358Z,1006.89
2018-03-26T11:39:43.421Z,1006.58
2018-03-26T11:40:43.485Z,1006.72
2018-03-26T11:41:43.555Z,1007.02
2018-03-26T11:42:43.615Z,1007.35
2018-03-26T11:43:43.680Z,1008.51
2018-03-26T11:44:43.742Z,1008.80
2018-03-26T11:45:43.808Z,1006.19
2018-03-26T11:46:43.874Z,1006.02
2018-03-26T11:47:43.939Z,1007.13
2018-03-26T11:48:44.154Z,1006.26
2018-03-26T11:49:44.070Z,1008.45
2018-03-26T11:50:44.133Z,1007.61
2018-03-26T11:51:44.198Z,1007.42
2018-03-26T11:52:44.264Z,1007.49
2018-03-26T11:53:44.341Z,1007.65
2018-03-26T11:54:44.394Z,1007.39
2018-03-26T11:55:44.460Z,1006.91
2018-03-26T11:56:44.527Z,1007.07
2018-03-26T11:57:44.590Z,1007.08
2018-03-26T11:58:44.656Z,1007.17
2018-03-26T11:59:44.872Z,1008.21
2018-03-26T12:00:44.787Z,1007.58
2018-03-26T12:01:44.853Z,1007.62
2018-03-26T12:02:44.920Z,1007.88
2018-03-26T12:03:44.986Z,1007.59
2018-03-26T12:04:45.051Z,1006.28
2018-03-26T12:05:45.369Z,1006.02